sensor_id;sensor_type;location;lat;lon;timestamp;temperature;humidity
64062;DHT22;50308;47.438;-1.528;2024-02-26T00:00:28;11.30;99.90
64062;DHT22;50308;47.438;-1.528;2024-02-26T00:02:54;11.30;99.90
64062;DHT22;50308;47.438;-1.528;2024-02-26T00:05:20;11.30;99.90
64062;DHT22;50308;47.438;-1.528;2024-02-26T00:07:46;11.30;99.90
64062;DHT22;50308;47.438;-1.528;2024-02-26T00:10:13;11.30;99.90
64062;DHT22;50308;47.438;-1.528;2024-02-26T00:12:39;11.30;99.90
64062;DHT22;50308;47.438;-1.528;2024-02-26T00:15:06;11.20;99.90
64062;DHT22;50308;47.438;-1.528;2024-02-26T00:17:32;11.20;99.90
64062;DHT22;50308;47.438;-1.528;2024-02-26T00:19:57;11.20;99.90
64062;DHT22;50308;47.438;-1.528;2024-02-26T00:22:23;11.20;99.90
64062;DHT22;50308;47.438;-1.528;2024-02-26T00:24:48;11.20;99.90
64062;DHT22;50308;47.438;-1.528;2024-02-26T00:27:14;11.20;99.90
64062;DHT22;50308;47.438;-1.528;2024-02-26T00:29:40;11.20;99.90
64062;DHT22;50308;47.438;-1.528;2024-02-26T00:32:05;11.20;99.90
64062;DHT22;50308;47.438;-1.528;2024-02-26T00:34:31;11.20;99.90
64062;DHT22;50308;47.438;-1.528;2024-02-26T00:36:57;11.20;99.90
64062;DHT22;50308;47.438;-1.528;2024-02-26T00:39:23;11.20;99.90
64062;DHT22;50308;47.438;-1.528;2024-02-26T00:41:48;11.10;99.90
64062;DHT22;50308;47.438;-1.528;2024-02-26T00:44:14;11.10;99.90
64062;DHT22;50308;47.438;-1.528;2024-02-26T00:46:40;11.10;99.90
64062;DHT22;50308;47.438;-1.528;2024-02-26T00:49:05;11.10;99.90
64062;DHT22;50308;47.438;-1.528;2024-02-26T00:51:31;11.10;99.90
64062;DHT22;50308;47.438;-1.528;2024-02-26T00:53:57;11.00;99.90
64062;DHT22;50308;47.438;-1.528;2024-02-26T00:56:22;11.00;99.90
64062;DHT22;50308;47.438;-1.528;2024-02-26T00:58:48;11.00;99.90
64062;DHT22;50308;47.438;-1.528;2024-02-26T01:01:14;11.00;99.90
64062;DHT22;50308;47.438;-1.528;2024-02-26T01:03:39;11.00;99.90
64062;DHT22;50308;47.438;-1.528;2024-02-26T01:06:05;11.00;99.90
64062;DHT22;50308;47.438;-1.528;2024-02-26T01:08:30;10.90;99.90
64062;DHT22;50308;47.438;-1.528;2024-02-26T01:10:57;10.90;99.90
64062;DHT22;50308;47.438;-1.528;2024-02-26T01:13:22;10.90;99.90
64062;DHT22;50308;47.438;-1.528;2024-02-26T01:15:48;10.80;99.90
64062;DHT22;50308;47.438;-1.528;2024-02-26T01:18:14;10.80;99.90
64062;DHT22;50308;47.438;-1.528;2024-02-26T01:20:39;10.80;99.90
64062;DHT22;50308;47.438;-1.528;2024-02-26T01:23:05;10.70;99.90
64062;DHT22;50308;47.438;-1.528;2024-02-26T01:25:31;10.70;99.90
64062;DHT22;50308;47.438;-1.528;2024-02-26T01:27:57;10.70;99.90
64062;DHT22;50308;47.438;-1.528;2024-02-26T01:30:22;10.70;99.90
64062;DHT22;50308;47.438;-1.528;2024-02-26T01:32:48;10.70;99.90
64062;DHT22;50308;47.438;-1.528;2024-02-26T01:35:14;10.70;99.90
64062;DHT22;50308;47.438;-1.528;2024-02-26T01:37:39;10.70;99.90
64062;DHT22;50308;47.438;-1.528;2024-02-26T01:40:06;10.60;99.90
64062;DHT22;50308;47.438;-1.528;2024-02-26T01:42:32;10.60;99.90
64062;DHT22;50308;47.438;-1.528;2024-02-26T01:44:59;10.60;99.90
64062;DHT22;50308;47.438;-1.528;2024-02-26T01:47:25;10.60;99.90
64062;DHT22;50308;47.438;-1.528;2024-02-26T01:49:52;10.60;99.90
64062;DHT22;50308;47.438;-1.528;2024-02-26T01:52:18;10.60;99.90
64062;DHT22;50308;47.438;-1.528;2024-02-26T01:54:45;10.60;99.90
64062;DHT22;50308;47.438;-1.528;2024-02-26T01:57:11;10.60;99.90
64062;DHT22;50308;47.438;-1.528;2024-02-26T01:59:38;10.60;99.90
64062;DHT22;50308;47.438;-1.528;2024-02-26T02:02:07;10.60;99.90
64062;DHT22;50308;47.438;-1.528;2024-02-26T02:04:33;10.70;99.90
64062;DHT22;50308;47.438;-1.528;2024-02-26T02:07:00;10.60;99.90
64062;DHT22;50308;47.438;-1.528;2024-02-26T02:09:27;10.60;99.90
64062;DHT22;50308;47.438;-1.528;2024-02-26T02:11:53;10.60;99.90
64062;DHT22;50308;47.438;-1.528;2024-02-26T02:14:19;10.60;99.90
64062;DHT22;50308;47.438;-1.528;2024-02-26T02:16:46;10.60;99.90
64062;DHT22;50308;47.438;-1.528;2024-02-26T02:19:12;10.50;99.90
64062;DHT22;50308;47.438;-1.528;2024-02-26T02:21:38;10.50;99.90
64062;DHT22;50308;47.438;-1.528;2024-02-26T02:24:04;10.50;99.90
64062;DHT22;50308;47.438;-1.528;2024-02-26T02:26:29;10.50;99.90
64062;DHT22;50308;47.438;-1.528;2024-02-26T02:28:55;10.50;99.90
64062;DHT22;50308;47.438;-1.528;2024-02-26T02:31:21;10.50;99.90
64062;DHT22;50308;47.438;-1.528;2024-02-26T02:33:47;10.50;99.90
64062;DHT22;50308;47.438;-1.528;2024-02-26T02:36:12;10.50;99.90
64062;DHT22;50308;47.438;-1.528;2024-02-26T02:38:38;10.50;99.90
64062;DHT22;50308;47.438;-1.528;2024-02-26T02:41:14;10.50;99.90
64062;DHT22;50308;47.438;-1.528;2024-02-26T02:43:40;10.50;99.90
64062;DHT22;50308;47.438;-1.528;2024-02-26T02:46:05;10.50;99.90
64062;DHT22;50308;47.438;-1.528;2024-02-26T02:48:31;10.50;99.90
64062;DHT22;50308;47.438;-1.528;2024-02-26T02:50:56;10.50;99.90
64062;DHT22;50308;47.438;-1.528;2024-02-26T02:53:22;10.50;99.90
64062;DHT22;50308;47.438;-1.528;2024-02-26T02:55:48;10.50;99.90
64062;DHT22;50308;47.438;-1.528;2024-02-26T02:58:13;10.50;99.90
64062;DHT22;50308;47.438;-1.528;2024-02-26T03:00:39;10.50;99.90
64062;DHT22;50308;47.438;-1.528;2024-02-26T03:03:05;10.50;99.90
64062;DHT22;50308;47.438;-1.528;2024-02-26T03:05:30;10.50;99.90
64062;DHT22;50308;47.438;-1.528;2024-02-26T03:07:56;10.50;99.90
64062;DHT22;50308;47.438;-1.528;2024-02-26T03:10:21;10.40;99.90
64062;DHT22;50308;47.438;-1.528;2024-02-26T03:12:47;10.50;99.90
64062;DHT22;50308;47.438;-1.528;2024-02-26T03:15:13;10.50;99.90
64062;DHT22;50308;47.438;-1.528;2024-02-26T03:17:38;10.50;99.90
64062;DHT22;50308;47.438;-1.528;2024-02-26T03:20:04;10.50;99.90
64062;DHT22;50308;47.438;-1.528;2024-02-26T03:22:30;10.50;99.90
64062;DHT22;50308;47.438;-1.528;2024-02-26T03:24:57;10.50;99.90
64062;DHT22;50308;47.438;-1.528;2024-02-26T03:27:23;10.50;99.90
64062;DHT22;50308;47.438;-1.528;2024-02-26T03:29:48;10.50;99.90
64062;DHT22;50308;47.438;-1.528;2024-02-26T03:32:14;10.50;99.90
64062;DHT22;50308;47.438;-1.528;2024-02-26T03:34:40;10.50;99.90
64062;DHT22;50308;47.438;-1.528;2024-02-26T03:37:05;10.50;99.90
64062;DHT22;50308;47.438;-1.528;2024-02-26T03:39:32;10.60;99.90
64062;DHT22;50308;47.438;-1.528;2024-02-26T03:41:58;10.60;99.90
64062;DHT22;50308;47.438;-1.528;2024-02-26T03:44:24;10.60;99.90
64062;DHT22;50308;47.438;-1.528;2024-02-26T03:46:49;10.60;99.90
64062;DHT22;50308;47.438;-1.528;2024-02-26T03:49:15;10.60;99.90
64062;DHT22;50308;47.438;-1.528;2024-02-26T03:51:41;10.60;99.90
64062;DHT22;50308;47.438;-1.528;2024-02-26T03:54:07;10.60;99.90
64062;DHT22;50308;47.438;-1.528;2024-02-26T03:56:33;10.60;99.90
64062;DHT22;50308;47.438;-1.528;2024-02-26T03:58:58;10.60;99.90
64062;DHT22;50308;47.438;-1.528;2024-02-26T04:01:26;10.70;99.90
64062;DHT22;50308;47.438;-1.528;2024-02-26T04:03:52;10.60;99.90
64062;DHT22;50308;47.438;-1.528;2024-02-26T04:06:18;10.60;99.90
64062;DHT22;50308;47.438;-1.528;2024-02-26T04:08:46;10.70;99.90
64062;DHT22;50308;47.438;-1.528;2024-02-26T04:11:12;10.60;99.90
64062;DHT22;50308;47.438;-1.528;2024-02-26T04:13:38;10.60;99.90
64062;DHT22;50308;47.438;-1.528;2024-02-26T04:16:06;10.60;99.90
64062;DHT22;50308;47.438;-1.528;2024-02-26T04:18:32;10.60;99.90
64062;DHT22;50308;47.438;-1.528;2024-02-26T04:20:58;10.70;99.90
64062;DHT22;50308;47.438;-1.528;2024-02-26T04:23:24;10.60;99.90
64062;DHT22;50308;47.438;-1.528;2024-02-26T04:25:50;10.60;99.90
64062;DHT22;50308;47.438;-1.528;2024-02-26T04:28:16;10.60;99.90
64062;DHT22;50308;47.438;-1.528;2024-02-26T04:30:41;10.60;99.90
64062;DHT22;50308;47.438;-1.528;2024-02-26T04:33:07;10.70;99.90
64062;DHT22;50308;47.438;-1.528;2024-02-26T04:35:33;10.70;99.90
64062;DHT22;50308;47.438;-1.528;2024-02-26T04:38:00;10.70;99.90
64062;DHT22;50308;47.438;-1.528;2024-02-26T04:40:26;10.70;99.90
64062;DHT22;50308;47.438;-1.528;2024-02-26T04:42:52;10.70;99.90
64062;DHT22;50308;47.438;-1.528;2024-02-26T04:45:17;10.70;99.90
64062;DHT22;50308;47.438;-1.528;2024-02-26T04:47:43;10.60;99.90
64062;DHT22;50308;47.438;-1.528;2024-02-26T04:50:09;10.70;99.90
64062;DHT22;50308;47.438;-1.528;2024-02-26T04:52:35;10.70;99.90
64062;DHT22;50308;47.438;-1.528;2024-02-26T04:55:01;10.60;99.90
64062;DHT22;50308;47.438;-1.528;2024-02-26T04:57:28;10.60;99.90
64062;DHT22;50308;47.438;-1.528;2024-02-26T04:59:53;10.60;99.90
64062;DHT22;50308;47.438;-1.528;2024-02-26T05:02:19;10.60;99.90
64062;DHT22;50308;47.438;-1.528;2024-02-26T05:04:44;10.60;99.90
64062;DHT22;50308;47.438;-1.528;2024-02-26T05:07:10;10.70;99.90
64062;DHT22;50308;47.438;-1.528;2024-02-26T05:09:36;10.70;99.90
64062;DHT22;50308;47.438;-1.528;2024-02-26T05:12:01;10.70;99.90
64062;DHT22;50308;47.438;-1.528;2024-02-26T05:14:27;10.70;99.90
64062;DHT22;50308;47.438;-1.528;2024-02-26T05:16:53;10.70;99.90
64062;DHT22;50308;47.438;-1.528;2024-02-26T05:19:18;10.70;99.90
64062;DHT22;50308;47.438;-1.528;2024-02-26T05:21:44;10.70;99.90
64062;DHT22;50308;47.438;-1.528;2024-02-26T05:24:10;10.70;99.90
64062;DHT22;50308;47.438;-1.528;2024-02-26T05:26:36;10.70;99.90
64062;DHT22;50308;47.438;-1.528;2024-02-26T05:29:01;10.70;99.90
64062;DHT22;50308;47.438;-1.528;2024-02-26T05:31:27;10.70;99.90
64062;DHT22;50308;47.438;-1.528;2024-02-26T05:33:54;10.70;99.90
64062;DHT22;50308;47.438;-1.528;2024-02-26T05:36:21;10.70;99.90
64062;DHT22;50308;47.438;-1.528;2024-02-26T05:38:48;10.70;99.90
64062;DHT22;50308;47.438;-1.528;2024-02-26T05:41:17;10.70;99.90
64062;DHT22;50308;47.438;-1.528;2024-02-26T05:43:50;10.80;99.90
64062;DHT22;50308;47.438;-1.528;2024-02-26T05:46:17;10.80;99.90
64062;DHT22;50308;47.438;-1.528;2024-02-26T05:48:44;10.80;99.90
64062;DHT22;50308;47.438;-1.528;2024-02-26T05:51:10;10.70;99.90
64062;DHT22;50308;47.438;-1.528;2024-02-26T05:53:35;10.70;99.90
64062;DHT22;50308;47.438;-1.528;2024-02-26T05:56:01;10.80;99.90
64062;DHT22;50308;47.438;-1.528;2024-02-26T05:58:27;10.70;99.90
64062;DHT22;50308;47.438;-1.528;2024-02-26T06:00:52;10.80;99.90
64062;DHT22;50308;47.438;-1.528;2024-02-26T06:03:18;10.80;99.90
64062;DHT22;50308;47.438;-1.528;2024-02-26T06:05:43;10.80;99.90
64062;DHT22;50308;47.438;-1.528;2024-02-26T06:08:09;10.80;99.90
64062;DHT22;50308;47.438;-1.528;2024-02-26T06:10:35;10.80;99.90
64062;DHT22;50308;47.438;-1.528;2024-02-26T06:13:00;10.80;99.90
64062;DHT22;50308;47.438;-1.528;2024-02-26T06:15:26;10.80;99.90
64062;DHT22;50308;47.438;-1.528;2024-02-26T06:17:52;10.80;99.90
64062;DHT22;50308;47.438;-1.528;2024-02-26T06:20:17;10.80;99.90
64062;DHT22;50308;47.438;-1.528;2024-02-26T06:22:43;10.80;99.90
64062;DHT22;50308;47.438;-1.528;2024-02-26T06:25:09;10.80;99.90
64062;DHT22;50308;47.438;-1.528;2024-02-26T06:27:35;10.80;99.90
64062;DHT22;50308;47.438;-1.528;2024-02-26T06:30:01;10.80;99.90
64062;DHT22;50308;47.438;-1.528;2024-02-26T06:32:27;10.80;99.90
64062;DHT22;50308;47.438;-1.528;2024-02-26T06:34:54;10.90;99.90
64062;DHT22;50308;47.438;-1.528;2024-02-26T06:37:20;10.80;99.90
64062;DHT22;50308;47.438;-1.528;2024-02-26T06:39:46;10.80;99.90
64062;DHT22;50308;47.438;-1.528;2024-02-26T06:42:11;10.80;99.90
64062;DHT22;50308;47.438;-1.528;2024-02-26T06:44:37;10.80;99.90
64062;DHT22;50308;47.438;-1.528;2024-02-26T06:47:03;10.80;99.90
64062;DHT22;50308;47.438;-1.528;2024-02-26T06:49:29;10.80;99.90
64062;DHT22;50308;47.438;-1.528;2024-02-26T06:51:55;10.80;99.90
64062;DHT22;50308;47.438;-1.528;2024-02-26T06:54:20;10.90;99.90
64062;DHT22;50308;47.438;-1.528;2024-02-26T06:56:46;10.90;99.90
64062;DHT22;50308;47.438;-1.528;2024-02-26T06:59:12;10.90;99.90
64062;DHT22;50308;47.438;-1.528;2024-02-26T07:01:42;10.90;99.90
64062;DHT22;50308;47.438;-1.528;2024-02-26T07:04:08;10.90;99.90
64062;DHT22;50308;47.438;-1.528;2024-02-26T07:06:34;10.90;99.90
64062;DHT22;50308;47.438;-1.528;2024-02-26T07:08:59;10.90;99.90
64062;DHT22;50308;47.438;-1.528;2024-02-26T07:11:25;10.90;99.90
64062;DHT22;50308;47.438;-1.528;2024-02-26T07:13:51;10.90;99.90
64062;DHT22;50308;47.438;-1.528;2024-02-26T07:16:16;10.90;99.90
64062;DHT22;50308;47.438;-1.528;2024-02-26T07:18:42;10.90;99.90
64062;DHT22;50308;47.438;-1.528;2024-02-26T07:21:11;10.90;99.90
64062;DHT22;50308;47.438;-1.528;2024-02-26T07:23:37;10.90;99.90
64062;DHT22;50308;47.438;-1.528;2024-02-26T07:26:03;10.90;99.90
64062;DHT22;50308;47.438;-1.528;2024-02-26T07:28:29;10.90;99.90
64062;DHT22;50308;47.438;-1.528;2024-02-26T07:30:55;10.90;99.90
64062;DHT22;50308;47.438;-1.528;2024-02-26T07:33:20;10.90;99.90
64062;DHT22;50308;47.438;-1.528;2024-02-26T07:35:46;10.90;99.90
64062;DHT22;50308;47.438;-1.528;2024-02-26T07:38:12;11.00;99.90
64062;DHT22;50308;47.438;-1.528;2024-02-26T07:40:39;10.90;99.90
64062;DHT22;50308;47.438;-1.528;2024-02-26T07:43:04;11.00;99.90
64062;DHT22;50308;47.438;-1.528;2024-02-26T07:45:30;10.90;99.90
64062;DHT22;50308;47.438;-1.528;2024-02-26T07:47:55;11.00;99.90
64062;DHT22;50308;47.438;-1.528;2024-02-26T07:50:21;11.00;99.90
64062;DHT22;50308;47.438;-1.528;2024-02-26T07:52:47;11.00;99.90
64062;DHT22;50308;47.438;-1.528;2024-02-26T07:55:12;11.00;99.90
64062;DHT22;50308;47.438;-1.528;2024-02-26T07:57:42;11.00;99.90
64062;DHT22;50308;47.438;-1.528;2024-02-26T08:00:09;11.00;99.90
64062;DHT22;50308;47.438;-1.528;2024-02-26T08:02:36;11.00;99.90
64062;DHT22;50308;47.438;-1.528;2024-02-26T08:05:01;11.00;99.90
64062;DHT22;50308;47.438;-1.528;2024-02-26T08:07:27;11.00;99.90
64062;DHT22;50308;47.438;-1.528;2024-02-26T08:09:54;11.00;99.90
64062;DHT22;50308;47.438;-1.528;2024-02-26T08:12:19;11.00;99.90
64062;DHT22;50308;47.438;-1.528;2024-02-26T08:14:45;11.00;99.90
64062;DHT22;50308;47.438;-1.528;2024-02-26T08:17:11;11.00;99.90
64062;DHT22;50308;47.438;-1.528;2024-02-26T08:19:36;11.00;99.90
64062;DHT22;50308;47.438;-1.528;2024-02-26T08:22:02;11.00;99.90
64062;DHT22;50308;47.438;-1.528;2024-02-26T08:24:28;11.00;99.90
64062;DHT22;50308;47.438;-1.528;2024-02-26T08:26:54;11.00;99.90
64062;DHT22;50308;47.438;-1.528;2024-02-26T08:29:20;11.00;99.90
64062;DHT22;50308;47.438;-1.528;2024-02-26T08:31:46;11.00;99.90
64062;DHT22;50308;47.438;-1.528;2024-02-26T08:34:11;11.10;99.90
64062;DHT22;50308;47.438;-1.528;2024-02-26T08:36:37;11.00;99.90
64062;DHT22;50308;47.438;-1.528;2024-02-26T08:39:03;11.00;99.90
64062;DHT22;50308;47.438;-1.528;2024-02-26T08:41:29;11.00;99.90
64062;DHT22;50308;47.438;-1.528;2024-02-26T08:43:55;11.00;99.90
64062;DHT22;50308;47.438;-1.528;2024-02-26T08:46:21;11.00;99.90
64062;DHT22;50308;47.438;-1.528;2024-02-26T08:48:46;11.00;99.90
64062;DHT22;50308;47.438;-1.528;2024-02-26T08:51:12;11.00;99.90
64062;DHT22;50308;47.438;-1.528;2024-02-26T08:53:38;11.00;99.90
64062;DHT22;50308;47.438;-1.528;2024-02-26T08:56:05;11.00;99.90
64062;DHT22;50308;47.438;-1.528;2024-02-26T08:58:30;11.00;99.90
64062;DHT22;50308;47.438;-1.528;2024-02-26T09:00:56;11.00;99.90
64062;DHT22;50308;47.438;-1.528;2024-02-26T09:03:22;11.00;99.90
64062;DHT22;50308;47.438;-1.528;2024-02-26T09:05:48;11.00;99.90
64062;DHT22;50308;47.438;-1.528;2024-02-26T09:08:14;11.00;99.90
64062;DHT22;50308;47.438;-1.528;2024-02-26T09:10:40;11.00;99.90
64062;DHT22;50308;47.438;-1.528;2024-02-26T09:13:06;11.00;99.90
64062;DHT22;50308;47.438;-1.528;2024-02-26T09:15:32;11.00;99.90
64062;DHT22;50308;47.438;-1.528;2024-02-26T09:17:58;11.00;99.90
64062;DHT22;50308;47.438;-1.528;2024-02-26T09:20:23;11.00;99.90
64062;DHT22;50308;47.438;-1.528;2024-02-26T09:22:50;11.00;99.90
64062;DHT22;50308;47.438;-1.528;2024-02-26T09:25:16;11.00;99.90
64062;DHT22;50308;47.438;-1.528;2024-02-26T09:27:43;11.00;99.90
64062;DHT22;50308;47.438;-1.528;2024-02-26T09:30:10;11.00;99.90
64062;DHT22;50308;47.438;-1.528;2024-02-26T09:32:36;11.00;99.90
64062;DHT22;50308;47.438;-1.528;2024-02-26T09:35:01;11.00;99.90
64062;DHT22;50308;47.438;-1.528;2024-02-26T09:37:27;11.00;99.90
64062;DHT22;50308;47.438;-1.528;2024-02-26T09:39:53;10.90;99.90
64062;DHT22;50308;47.438;-1.528;2024-02-26T09:42:19;11.00;99.90
64062;DHT22;50308;47.438;-1.528;2024-02-26T09:44:45;10.90;99.90
64062;DHT22;50308;47.438;-1.528;2024-02-26T09:47:14;10.90;99.90
64062;DHT22;50308;47.438;-1.528;2024-02-26T09:49:43;10.90;99.90
64062;DHT22;50308;47.438;-1.528;2024-02-26T09:52:09;10.90;99.90
64062;DHT22;50308;47.438;-1.528;2024-02-26T09:54:35;10.90;99.90
64062;DHT22;50308;47.438;-1.528;2024-02-26T09:57:03;10.90;99.90
64062;DHT22;50308;47.438;-1.528;2024-02-26T09:59:39;10.90;99.90
64062;DHT22;50308;47.438;-1.528;2024-02-26T10:02:14;10.90;99.90
64062;DHT22;50308;47.438;-1.528;2024-02-26T10:04:42;10.90;99.90
64062;DHT22;50308;47.438;-1.528;2024-02-26T10:07:11;10.90;99.90
64062;DHT22;50308;47.438;-1.528;2024-02-26T10:09:37;10.90;99.90
64062;DHT22;50308;47.438;-1.528;2024-02-26T10:12:04;10.90;99.90
64062;DHT22;50308;47.438;-1.528;2024-02-26T10:14:30;10.90;99.90
64062;DHT22;50308;47.438;-1.528;2024-02-26T10:16:56;10.90;99.90
64062;DHT22;50308;47.438;-1.528;2024-02-26T10:19:29;10.90;99.90
64062;DHT22;50308;47.438;-1.528;2024-02-26T10:21:59;10.90;99.90
64062;DHT22;50308;47.438;-1.528;2024-02-26T10:24:29;10.90;99.90
64062;DHT22;50308;47.438;-1.528;2024-02-26T10:26:55;10.90;99.90
64062;DHT22;50308;47.438;-1.528;2024-02-26T10:29:22;10.90;99.90
64062;DHT22;50308;47.438;-1.528;2024-02-26T10:31:48;10.90;99.90
64062;DHT22;50308;47.438;-1.528;2024-02-26T10:34:17;10.90;99.90
64062;DHT22;50308;47.438;-1.528;2024-02-26T10:36:43;10.90;99.90
64062;DHT22;50308;47.438;-1.528;2024-02-26T10:39:11;10.90;99.90
64062;DHT22;50308;47.438;-1.528;2024-02-26T10:41:37;10.80;99.90
64062;DHT22;50308;47.438;-1.528;2024-02-26T10:44:04;10.80;99.90
64062;DHT22;50308;47.438;-1.528;2024-02-26T10:46:29;10.80;99.90
64062;DHT22;50308;47.438;-1.528;2024-02-26T10:48:56;10.90;99.90
64062;DHT22;50308;47.438;-1.528;2024-02-26T10:51:29;10.90;99.90
64062;DHT22;50308;47.438;-1.528;2024-02-26T10:53:58;10.80;99.90
64062;DHT22;50308;47.438;-1.528;2024-02-26T10:56:26;10.90;99.90
64062;DHT22;50308;47.438;-1.528;2024-02-26T10:58:57;10.90;99.90
64062;DHT22;50308;47.438;-1.528;2024-02-26T11:01:24;10.90;99.90
64062;DHT22;50308;47.438;-1.528;2024-02-26T11:03:51;10.90;99.90
64062;DHT22;50308;47.438;-1.528;2024-02-26T11:06:19;10.90;99.90
64062;DHT22;50308;47.438;-1.528;2024-02-26T11:08:48;10.80;99.90
64062;DHT22;50308;47.438;-1.528;2024-02-26T11:11:16;10.90;99.90
64062;DHT22;50308;47.438;-1.528;2024-02-26T11:13:45;10.90;99.90
64062;DHT22;50308;47.438;-1.528;2024-02-26T11:16:16;10.80;99.90
64062;DHT22;50308;47.438;-1.528;2024-02-26T11:18:42;10.90;99.90
64062;DHT22;50308;47.438;-1.528;2024-02-26T11:21:08;10.90;99.90
64062;DHT22;50308;47.438;-1.528;2024-02-26T11:23:34;10.90;99.90
64062;DHT22;50308;47.438;-1.528;2024-02-26T11:26:03;10.90;99.90
64062;DHT22;50308;47.438;-1.528;2024-02-26T11:28:30;10.90;99.90
64062;DHT22;50308;47.438;-1.528;2024-02-26T11:30:58;10.80;99.90
64062;DHT22;50308;47.438;-1.528;2024-02-26T11:33:25;10.90;99.90
64062;DHT22;50308;47.438;-1.528;2024-02-26T11:35:50;10.80;99.90
64062;DHT22;50308;47.438;-1.528;2024-02-26T11:38:25;10.90;99.90
64062;DHT22;50308;47.438;-1.528;2024-02-26T11:40:53;10.80;99.90
64062;DHT22;50308;47.438;-1.528;2024-02-26T11:43:23;10.80;99.90
64062;DHT22;50308;47.438;-1.528;2024-02-26T11:46:25;10.80;99.90
64062;DHT22;50308;47.438;-1.528;2024-02-26T11:48:53;10.80;99.90
64062;DHT22;50308;47.438;-1.528;2024-02-26T11:51:25;10.80;99.90
64062;DHT22;50308;47.438;-1.528;2024-02-26T11:53:51;10.80;99.90
64062;DHT22;50308;47.438;-1.528;2024-02-26T11:56:22;10.80;99.90
64062;DHT22;50308;47.438;-1.528;2024-02-26T11:58:53;10.80;99.90
64062;DHT22;50308;47.438;-1.528;2024-02-26T12:01:48;10.80;99.90
64062;DHT22;50308;47.438;-1.528;2024-02-26T12:04:18;10.70;99.90
64062;DHT22;50308;47.438;-1.528;2024-02-26T12:06:47;10.80;99.90
64062;DHT22;50308;47.438;-1.528;2024-02-26T12:09:13;10.80;99.90
64062;DHT22;50308;47.438;-1.528;2024-02-26T12:11:55;10.80;99.90
64062;DHT22;50308;47.438;-1.528;2024-02-26T12:14:25;10.80;99.90
64062;DHT22;50308;47.438;-1.528;2024-02-26T12:16:52;10.80;99.90
64062;DHT22;50308;47.438;-1.528;2024-02-26T12:19:18;10.80;99.90
64062;DHT22;50308;47.438;-1.528;2024-02-26T12:21:44;10.80;99.90
64062;DHT22;50308;47.438;-1.528;2024-02-26T12:24:12;10.80;99.90
64062;DHT22;50308;47.438;-1.528;2024-02-26T12:26:39;10.80;99.90
64062;DHT22;50308;47.438;-1.528;2024-02-26T12:29:04;10.80;99.90
64062;DHT22;50308;47.438;-1.528;2024-02-26T12:31:31;10.80;99.90
64062;DHT22;50308;47.438;-1.528;2024-02-26T12:33:57;10.80;99.90
64062;DHT22;50308;47.438;-1.528;2024-02-26T12:36:23;10.80;99.90
64062;DHT22;50308;47.438;-1.528;2024-02-26T12:38:50;10.80;99.90
64062;DHT22;50308;47.438;-1.528;2024-02-26T12:41:16;10.80;99.90
64062;DHT22;50308;47.438;-1.528;2024-02-26T12:43:42;10.80;99.90
64062;DHT22;50308;47.438;-1.528;2024-02-26T12:46:08;10.80;99.90
64062;DHT22;50308;47.438;-1.528;2024-02-26T12:48:34;10.80;99.90
64062;DHT22;50308;47.438;-1.528;2024-02-26T12:51:00;10.80;99.90
64062;DHT22;50308;47.438;-1.528;2024-02-26T12:53:26;10.80;99.90
64062;DHT22;50308;47.438;-1.528;2024-02-26T12:55:56;10.70;99.90
64062;DHT22;50308;47.438;-1.528;2024-02-26T12:58:22;10.70;99.90
64062;DHT22;50308;47.438;-1.528;2024-02-26T13:00:54;10.70;99.90
64062;DHT22;50308;47.438;-1.528;2024-02-26T13:03:20;10.80;99.90
64062;DHT22;50308;47.438;-1.528;2024-02-26T13:05:47;10.80;99.90
64062;DHT22;50308;47.438;-1.528;2024-02-26T13:08:20;10.80;99.90
64062;DHT22;50308;47.438;-1.528;2024-02-26T13:10:46;10.80;99.90
64062;DHT22;50308;47.438;-1.528;2024-02-26T13:13:15;10.80;99.90
64062;DHT22;50308;47.438;-1.528;2024-02-26T13:15:44;10.80;99.90
64062;DHT22;50308;47.438;-1.528;2024-02-26T13:18:16;10.70;99.90
64062;DHT22;50308;47.438;-1.528;2024-02-26T13:20:42;10.80;99.90
64062;DHT22;50308;47.438;-1.528;2024-02-26T13:23:11;10.70;99.90
64062;DHT22;50308;47.438;-1.528;2024-02-26T13:25:37;10.70;99.90
64062;DHT22;50308;47.438;-1.528;2024-02-26T13:28:19;10.70;99.90
64062;DHT22;50308;47.438;-1.528;2024-02-26T13:30:52;10.80;99.90
64062;DHT22;50308;47.438;-1.528;2024-02-26T13:33:19;10.80;99.90
64062;DHT22;50308;47.438;-1.528;2024-02-26T13:35:44;10.80;99.90
64062;DHT22;50308;47.438;-1.528;2024-02-26T13:38:10;10.80;99.90
64062;DHT22;50308;47.438;-1.528;2024-02-26T13:40:37;10.80;99.90
64062;DHT22;50308;47.438;-1.528;2024-02-26T13:43:04;10.70;99.90
64062;DHT22;50308;47.438;-1.528;2024-02-26T13:45:30;10.70;99.90
64062;DHT22;50308;47.438;-1.528;2024-02-26T13:48:02;10.70;99.90
64062;DHT22;50308;47.438;-1.528;2024-02-26T13:50:28;10.70;99.90
64062;DHT22;50308;47.438;-1.528;2024-02-26T13:52:54;10.70;99.90
64062;DHT22;50308;47.438;-1.528;2024-02-26T13:55:21;10.70;99.90
64062;DHT22;50308;47.438;-1.528;2024-02-26T13:57:49;10.70;99.90
64062;DHT22;50308;47.438;-1.528;2024-02-26T14:00:17;10.70;99.90
64062;DHT22;50308;47.438;-1.528;2024-02-26T14:02:43;10.70;99.90
64062;DHT22;50308;47.438;-1.528;2024-02-26T14:05:08;10.70;99.90
64062;DHT22;50308;47.438;-1.528;2024-02-26T14:07:34;10.70;99.90
64062;DHT22;50308;47.438;-1.528;2024-02-26T14:10:00;10.70;99.90
64062;DHT22;50308;47.438;-1.528;2024-02-26T14:12:25;10.70;99.90
64062;DHT22;50308;47.438;-1.528;2024-02-26T14:14:51;10.70;99.90
64062;DHT22;50308;47.438;-1.528;2024-02-26T14:17:19;10.70;99.90
64062;DHT22;50308;47.438;-1.528;2024-02-26T14:19:45;10.70;99.90
64062;DHT22;50308;47.438;-1.528;2024-02-26T14:22:13;10.60;99.90
64062;DHT22;50308;47.438;-1.528;2024-02-26T14:24:38;10.70;99.90
64062;DHT22;50308;47.438;-1.528;2024-02-26T14:27:05;10.60;99.90
64062;DHT22;50308;47.438;-1.528;2024-02-26T14:29:33;10.60;99.90
64062;DHT22;50308;47.438;-1.528;2024-02-26T14:31:58;10.60;99.90
64062;DHT22;50308;47.438;-1.528;2024-02-26T14:34:24;10.60;99.90
64062;DHT22;50308;47.438;-1.528;2024-02-26T14:36:50;10.60;99.90
64062;DHT22;50308;47.438;-1.528;2024-02-26T14:39:15;10.60;99.90
64062;DHT22;50308;47.438;-1.528;2024-02-26T14:41:41;10.60;99.90
64062;DHT22;50308;47.438;-1.528;2024-02-26T14:44:08;10.60;99.90
64062;DHT22;50308;47.438;-1.528;2024-02-26T14:46:34;10.60;99.90
64062;DHT22;50308;47.438;-1.528;2024-02-26T14:48:59;10.60;99.90
64062;DHT22;50308;47.438;-1.528;2024-02-26T14:51:25;10.60;99.90
64062;DHT22;50308;47.438;-1.528;2024-02-26T14:53:50;10.60;99.90
64062;DHT22;50308;47.438;-1.528;2024-02-26T14:56:16;10.60;99.90
64062;DHT22;50308;47.438;-1.528;2024-02-26T14:58:42;10.60;99.90
64062;DHT22;50308;47.438;-1.528;2024-02-26T15:01:07;10.60;99.90
64062;DHT22;50308;47.438;-1.528;2024-02-26T15:03:33;10.60;99.90
64062;DHT22;50308;47.438;-1.528;2024-02-26T15:05:59;10.60;99.90
64062;DHT22;50308;47.438;-1.528;2024-02-26T15:08:24;10.60;99.90
64062;DHT22;50308;47.438;-1.528;2024-02-26T15:10:50;10.60;99.90